Umiak I — XJAR — position and weather

sailwx.info

Track history (hours):
 
Tides and Currents Weather Stations Pressure Air Temp Water Temp Dewpoint Dewpoint Depression Visibility Wind Speed Wind Dir Waves Ship Positions

Umiak I

Last reported at 2014-Aug-26 16:21 UTC. Time now 2014-Sep-01 13:42 UTC.
Position N 49°58' W 063°01'.

Length 188 m; draft 8.5 m.

Type: Ship. MMSI: 316013340.

Date/timePositionNaut miles runAvg speedWind from/ knotsBaromVisibWave heightAir tempDewpointWater temp
2014-Aug-26 16:21N 49°58' W 063°01'911.2
2014-Aug-26 15:33N 49°58' W 063°15'1111.0
2014-Aug-26 14:34N 49°59' W 063°32'1111.1
2014-Aug-26 13:34N 50°00' W 063°49'1111.1
2014-Aug-26 12:34N 50°01' W 064°06'6711.1
2014-Aug-26 06:32N 49°39' W 065°45'1111.4
2014-Aug-26 05:34N 49°34' W 066°00'1111.4
2014-Aug-26 04:34N 49°30' W 066°16'1111.2
2014-Aug-26 03:34N 49°25' W 066°32'1110.6
2014-Aug-26 02:33N 49°21' W 066°47'1110.5
2014-Aug-26 01:33N 49°15' W 067°00'1110.6
2014-Aug-26 00:33N 49°11' W 067°15'1111.1
2014-Aug-25 23:34N 49°05' W 067°30'1111.2
2014-Aug-25 22:34N 48°59' W 067°44'1111.0
2014-Aug-25 21:34N 48°53' W 067°58'1111.1
2014-Aug-25 20:33N 48°47' W 068°12'1111.2
2014-Aug-25 19:34N 48°41' W 068°27'1111.2
2014-Aug-25 18:34N 48°35' W 068°41'1110.9
2014-Aug-25 17:34N 48°29' W 068°55'1211.7
2014-Aug-25 16:34N 48°22' W 069°08'1110.8
2014-Aug-25 15:34N 48°19' W 069°24'1111.3
2014-Aug-25 14:33N 48°09' W 069°32'1514.7
2014-Aug-25 13:33N 47°56' W 069°42'1514.6
2014-Aug-25 12:33N 47°43' W 069°54'1514.7
2014-Aug-25 11:33N 47°32' W 070°08'1212.5
2014-Aug-25 10:33N 47°26' W 070°24'10 9.5
2014-Aug-25 09:33N 47°18' W 070°31'10 9.6
2014-Aug-25 08:33N 47°10' W 070°39'10 9.5
2014-Aug-25 07:33N 47°01' W 070°46'1211.5
2014-Aug-25 06:33N 46°52' W 070°57'1010.5
2014-Aug-25 05:34N 46°50' W 071°12'0 0.0
2014-Aug-25 04:32N 46°50' W 071°12'0 0.0
2014-Aug-25 03:32N 46°50' W 071°12'0 0.0
2014-Aug-25 02:32N 46°50' W 071°12'0 0.0
2014-Aug-25 01:33N 46°50' W 071°12'3 3.4
2014-Aug-25 00:33N 46°47' W 071°14'5 5.0
2014-Aug-24 23:33N 46°44' W 071°20'7 6.9
2014-Aug-24 22:33N 46°42' W 071°30'8 8.2
2014-Aug-24 21:33N 46°39' W 071°40'1111.0
2014-Aug-24 20:34N 46°38' W 071°56'1313.0
2014-Aug-24 19:33N 46°31' W 072°13'1211.5
2014-Aug-24 18:33N 46°24' W 072°25'1111.2
2014-Aug-24 17:33N 46°16' W 072°38'1312.9
2014-Aug-24 16:33N 46°11' W 072°54'1312.7
2014-Aug-24 15:34N 46°03' W 073°09'1313.4
2014-Aug-24 14:33N 45°51' W 073°17'1413.6
2014-Aug-24 13:33N 45°40' W 073°28'2 2.1
2014-Aug-24 12:32N 45°38' W 073°29'0 0.0
2014-Aug-24 11:32N 45°38' W 073°29'0 0.0
2014-Aug-24 10:32N 45°38' W 073°29'0 0.0
2014-Aug-24 09:32N 45°38' W 073°29'0 0.0
2014-Aug-24 08:32N 45°38' W 073°29'0 0.0
2014-Aug-24 07:32N 45°38' W 073°29'0 0.0
2014-Aug-24 06:32N 45°38' W 073°29'0 0.0
2014-Aug-24 05:32N 45°38' W 073°29'0 0.0
2014-Aug-24 04:32N 45°38' W 073°29'0 0.0
2014-Aug-24 03:32N 45°38' W 073°29'0 0.0
2014-Aug-24 02:32N 45°38' W 073°29'0 0.0
2014-Aug-24 01:32N 45°38' W 073°29'0 0.0
2014-Aug-24 00:32N 45°38' W 073°29'0 0.0
2014-Aug-23 23:32N 45°38' W 073°29'0 0.0
2014-Aug-23 22:32N 45°38' W 073°29'0 0.0
2014-Aug-23 21:32N 45°38' W 073°29'0 0.0
2014-Aug-23 20:32N 45°38' W 073°29'0 0.0
2014-Aug-23 19:32N 45°38' W 073°29'69 4.3
2014-Aug-23 03:33N 46°26' W 072°18'9 9.3
2014-Aug-23 02:33N 46°33' W 072°09'9 9.0
2014-Aug-23 01:33N 46°37' W 071°57'8 8.0
2014-Aug-23 00:33N 46°39' W 071°46'1010.5
2014-Aug-22 23:33N 46°42' W 071°31'1211.4
2014-Aug-22 22:32N 46°46' W 071°15'3 0.1
2014-Aug-22 04:32N 46°48' W 071°13'0 0.0
2014-Aug-21 21:29N 46°48' W 071°13'0 0.0
2014-Aug-21 20:29N 46°48' W 071°13'0 0.0
2014-Aug-21 19:29N 46°48' W 071°13'0 0.0
2014-Aug-21 18:33N 46°48' W 071°13'0 0.0
2014-Aug-21 17:33N 46°48' W 071°13'0 0.0
2014-Aug-21 16:33N 46°48' W 071°13'0 0.0
2014-Aug-21 15:27N 46°48' W 071°13'0 0.0
2014-Aug-21 14:27N 46°48' W 071°13'0 0.0
2014-Aug-21 13:33N 46°48' W 071°13'0 0.0
2014-Aug-21 12:33N 46°48' W 071°13'0 0.0
2014-Aug-21 11:33N 46°48' W 071°13'0 0.0
2014-Aug-21 10:33N 46°48' W 071°13'0 0.0
2014-Aug-21 09:33N 46°48' W 071°13'0 0.0
2014-Aug-21 08:33N 46°48' W 071°13'0 0.0
2014-Aug-21 07:33N 46°48' W 071°13'0 0.0
2014-Aug-21 06:33N 46°48' W 071°13'0 0.0
2014-Aug-21 05:33N 46°48' W 071°13'0 0.0
2014-Aug-21 04:30N 46°48' W 071°13'0 0.0
2014-Aug-21 03:33N 46°48' W 071°13'0 0.0
2014-Aug-21 02:33N 46°48' W 071°13'0 0.0
2014-Aug-21 01:15N 46°48' W 071°13'0 0.0
2014-Aug-21 00:33N 46°48' W 071°13'0 0.0
2014-Aug-20 23:33N 46°48' W 071°13'0 0.0
2014-Aug-20 22:33N 46°48' W 071°13'0 0.0
2014-Aug-20 21:33N 46°48' W 071°13'0 0.0
2014-Aug-20 20:33N 46°48' W 071°13'0 0.0
2014-Aug-20 19:33N 46°48' W 071°13'0 0.0
2014-Aug-20 18:33N 46°48' W 071°13'0 0.0
2014-Aug-20 17:33N 46°48' W 071°13'0 0.0
2014-Aug-20 16:21N 46°48' W 071°13'0 0.0
2014-Aug-20 15:33N 46°48' W 071°13'0 0.0
2014-Aug-20 14:33N 46°48' W 071°13'0 0.0
2014-Aug-20 13:33N 46°48' W 071°13'0 0.0
2014-Aug-20 12:33N 46°48' W 071°13'0 0.0
2014-Aug-20 11:33N 46°48' W 071°13'0 0.0
2014-Aug-20 10:33N 46°48' W 071°13'0 0.0
2014-Aug-20 09:33N 46°48' W 071°13'0 0.0
2014-Aug-20 08:33N 46°48' W 071°13'0 0.0
2014-Aug-20 07:33N 46°48' W 071°13'1 1.3
2014-Aug-20 06:33N 46°49' W 071°12'1 1.0
2014-Aug-20 05:32N 46°50' W 071°12'0 0.0
2014-Aug-20 04:32N 46°50' W 071°12'0 0.0
2014-Aug-20 03:32N 46°50' W 071°12'0 0.0
2014-Aug-20 02:32N 46°50' W 071°12'0 0.0
2014-Aug-20 01:32N 46°50' W 071°12'0 0.0
2014-Aug-20 00:32N 46°50' W 071°12'0 0.0
2014-Aug-19 23:32N 46°50' W 071°12'0 0.0
2014-Aug-19 22:32N 46°50' W 071°12'0 0.0
2014-Aug-19 21:32N 46°50' W 071°12'0 0.0
2014-Aug-19 20:32N 46°50' W 071°12'0 0.0
2014-Aug-19 19:32N 46°50' W 071°12'0 0.0
2014-Aug-19 18:32N 46°50' W 071°12'0 0.0
2014-Aug-19 17:32N 46°50' W 071°12'0 0.0
2014-Aug-19 16:32N 46°50' W 071°12'0 0.0
2014-Aug-19 15:32N 46°50' W 071°12'0 0.0
2014-Aug-19 14:32N 46°50' W 071°12'0 0.0
2014-Aug-19 13:32N 46°50' W 071°12'0 0.0
2014-Aug-19 12:32N 46°50' W 071°12'0 0.0
2014-Aug-19 11:32N 46°50' W 071°12'0 0.0
2014-Aug-19 10:29N 46°50' W 071°12'0 0.0
2014-Aug-19 09:32N 46°50' W 071°12'0 0.0
2014-Aug-19 08:32N 46°50' W 071°12'0 0.0
2014-Aug-19 07:29N 46°50' W 071°12'0 0.0
2014-Aug-19 06:32N 46°50' W 071°12'0 0.0
2014-Aug-19 05:31N 46°50' W 071°12'0 0.0
2014-Aug-19 04:31N 46°50' W 071°12'0 0.0
2014-Aug-19 03:31N 46°50' W 071°12'0 0.0
2014-Aug-19 02:31N 46°50' W 071°12'0 0.0
2014-Aug-19 01:31N 46°50' W 071°12'0 0.0
2014-Aug-19 00:31N 46°50' W 071°12'0 0.0
2014-Aug-18 23:31N 46°50' W 071°12'0 0.0
2014-Aug-18 22:31N 46°50' W 071°12'0 0.0
2014-Aug-18 21:31N 46°50' W 071°12'0 0.0
2014-Aug-18 20:31N 46°50' W 071°12'0 0.0
2014-Aug-18 19:31N 46°50' W 071°12'0 0.0
2014-Aug-18 18:31N 46°50' W 071°12'0 0.0
2014-Aug-18 17:28N 46°50' W 071°12'0 0.0
2014-Aug-18 16:31N 46°50' W 071°12'0 0.0
2014-Aug-18 15:31N 46°50' W 071°12'0 0.0
2014-Aug-18 14:31N 46°50' W 071°12'0 0.0
2014-Aug-18 13:31N 46°50' W 071°12'0 0.0
2014-Aug-18 12:31N 46°50' W 071°12'0 0.0
2014-Aug-18 11:31N 46°50' W 071°12'0 0.0
2014-Aug-18 10:31N 46°50' W 071°12'0 0.0
2014-Aug-18 09:28N 46°50' W 071°12'0 0.0
2014-Aug-18 08:31N 46°50' W 071°12'0 0.0
2014-Aug-18 07:31N 46°50' W 071°12'0 0.0
2014-Aug-18 06:31N 46°50' W 071°12'0 0.0
2014-Aug-18 05:31N 46°50' W 071°12'0 0.0
2014-Aug-18 04:31N 46°50' W 071°12'0 0.0
2014-Aug-18 03:31N 46°50' W 071°12'0 0.0
2014-Aug-18 02:31N 46°50' W 071°12'0 0.0
2014-Aug-18 01:31N 46°50' W 071°12'0 0.0
2014-Aug-18 00:28N 46°50' W 071°12'0 0.0
2014-Aug-17 18:31N 46°50' W 071°12'0 0.0
2014-Aug-17 17:31N 46°50' W 071°12'0 0.0
2014-Aug-17 16:31N 46°50' W 071°12'0 0.0
2014-Aug-17 15:31N 46°50' W 071°12'0 0.0
2014-Aug-17 14:31N 46°50' W 071°12'0 0.0
2014-Aug-17 13:31N 46°50' W 071°12'0 0.0
2014-Aug-17 12:31N 46°50' W 071°12'0 0.0
2014-Aug-17 11:31N 46°50' W 071°12'0 0.0
2014-Aug-17 10:31N 46°50' W 071°12'0 0.0
2014-Aug-17 09:31N 46°50' W 071°12'0 0.0
2014-Aug-17 08:31N 46°50' W 071°12'0 0.0
2014-Aug-17 07:33N 46°50' W 071°12'0 0.0
2014-Aug-17 06:31N 46°50' W 071°12'0 0.0
2014-Aug-17 05:31N 46°50' W 071°12'0 0.0
2014-Aug-17 04:31N 46°50' W 071°12'0 0.0
2014-Aug-17 03:31N 46°50' W 071°12'1 0.7
2014-Aug-17 02:30N 46°50' W 071°11'1010.0
2014-Aug-17 01:32N 46°52' W 070°57'1313.6
2014-Aug-17 00:33N 47°03' W 070°45'1414.1
2014-Aug-16 23:33N 47°15' W 070°34'1413.8
2014-Aug-16 22:33N 47°26' W 070°23'  
Track history (hours):
 
Tides and Currents Weather Stations Pressure Air Temp Water Temp Dewpoint Dewpoint Depression Visibility Wind Speed Wind Dir Waves Ship Positions

Umiak I

Last reported at 2014-Aug-26 16:21 UTC. Time now 2014-Sep-01 13:42 UTC.
Position N 49°58' W 063°01'.

Length 188 m; draft 8.5 m.

Type: Ship. MMSI: 316013340.

Date/timePositionNaut miles runAvg speedWind from/ knotsBaromVisibWave heightAir tempDewpointWater temp
2014-Aug-26 16:21N 49°58' W 063°01'911.2
2014-Aug-26 15:33N 49°58' W 063°15'1111.0
2014-Aug-26 14:34N 49°59' W 063°32'1111.1
2014-Aug-26 13:34N 50°00' W 063°49'1111.1
2014-Aug-26 12:34N 50°01' W 064°06'6711.1
2014-Aug-26 06:32N 49°39' W 065°45'1111.4
2014-Aug-26 05:34N 49°34' W 066°00'1111.4
2014-Aug-26 04:34N 49°30' W 066°16'1111.2
2014-Aug-26 03:34N 49°25' W 066°32'1110.6
2014-Aug-26 02:33N 49°21' W 066°47'1110.5
2014-Aug-26 01:33N 49°15' W 067°00'1110.6
2014-Aug-26 00:33N 49°11' W 067°15'1111.1
2014-Aug-25 23:34N 49°05' W 067°30'1111.2
2014-Aug-25 22:34N 48°59' W 067°44'1111.0
2014-Aug-25 21:34N 48°53' W 067°58'1111.1
2014-Aug-25 20:33N 48°47' W 068°12'1111.2
2014-Aug-25 19:34N 48°41' W 068°27'1111.2
2014-Aug-25 18:34N 48°35' W 068°41'1110.9
2014-Aug-25 17:34N 48°29' W 068°55'1211.7
2014-Aug-25 16:34N 48°22' W 069°08'1110.8
2014-Aug-25 15:34N 48°19' W 069°24'1111.3
2014-Aug-25 14:33N 48°09' W 069°32'1514.7
2014-Aug-25 13:33N 47°56' W 069°42'1514.6
2014-Aug-25 12:33N 47°43' W 069°54'1514.7
2014-Aug-25 11:33N 47°32' W 070°08'1212.5
2014-Aug-25 10:33N 47°26' W 070°24'10 9.5
2014-Aug-25 09:33N 47°18' W 070°31'10 9.6
2014-Aug-25 08:33N 47°10' W 070°39'10 9.5
2014-Aug-25 07:33N 47°01' W 070°46'1211.5
2014-Aug-25 06:33N 46°52' W 070°57'1010.5
2014-Aug-25 05:34N 46°50' W 071°12'0 0.0
2014-Aug-25 04:32N 46°50' W 071°12'0 0.0
2014-Aug-25 03:32N 46°50' W 071°12'0 0.0
2014-Aug-25 02:32N 46°50' W 071°12'0 0.0
2014-Aug-25 01:33N 46°50' W 071°12'3 3.4
2014-Aug-25 00:33N 46°47' W 071°14'5 5.0
2014-Aug-24 23:33N 46°44' W 071°20'7 6.9
2014-Aug-24 22:33N 46°42' W 071°30'8 8.2
2014-Aug-24 21:33N 46°39' W 071°40'1111.0
2014-Aug-24 20:34N 46°38' W 071°56'1313.0
2014-Aug-24 19:33N 46°31' W 072°13'1211.5
2014-Aug-24 18:33N 46°24' W 072°25'1111.2
2014-Aug-24 17:33N 46°16' W 072°38'1312.9
2014-Aug-24 16:33N 46°11' W 072°54'1312.7
2014-Aug-24 15:34N 46°03' W 073°09'1313.4
2014-Aug-24 14:33N 45°51' W 073°17'1413.6
2014-Aug-24 13:33N 45°40' W 073°28'2 2.1
2014-Aug-24 12:32N 45°38' W 073°29'0 0.0
2014-Aug-24 11:32N 45°38' W 073°29'0 0.0
2014-Aug-24 10:32N 45°38' W 073°29'0 0.0
2014-Aug-24 09:32N 45°38' W 073°29'0 0.0
2014-Aug-24 08:32N 45°38' W 073°29'0 0.0
2014-Aug-24 07:32N 45°38' W 073°29'0 0.0
2014-Aug-24 06:32N 45°38' W 073°29'0 0.0
2014-Aug-24 05:32N 45°38' W 073°29'0 0.0
2014-Aug-24 04:32N 45°38' W 073°29'0 0.0
2014-Aug-24 03:32N 45°38' W 073°29'0 0.0
2014-Aug-24 02:32N 45°38' W 073°29'0 0.0
2014-Aug-24 01:32N 45°38' W 073°29'0 0.0
2014-Aug-24 00:32N 45°38' W 073°29'0 0.0
2014-Aug-23 23:32N 45°38' W 073°29'0 0.0
2014-Aug-23 22:32N 45°38' W 073°29'0 0.0
2014-Aug-23 21:32N 45°38' W 073°29'0 0.0
2014-Aug-23 20:32N 45°38' W 073°29'0 0.0
2014-Aug-23 19:32N 45°38' W 073°29'69 4.3
2014-Aug-23 03:33N 46°26' W 072°18'9 9.3
2014-Aug-23 02:33N 46°33' W 072°09'9 9.0
2014-Aug-23 01:33N 46°37' W 071°57'8 8.0
2014-Aug-23 00:33N 46°39' W 071°46'1010.5
2014-Aug-22 23:33N 46°42' W 071°31'1211.4
2014-Aug-22 22:32N 46°46' W 071°15'3 0.1
2014-Aug-22 04:32N 46°48' W 071°13'0 0.0
2014-Aug-21 21:29N 46°48' W 071°13'0 0.0
2014-Aug-21 20:29N 46°48' W 071°13'0 0.0
2014-Aug-21 19:29N 46°48' W 071°13'0 0.0
2014-Aug-21 18:33N 46°48' W 071°13'0 0.0
2014-Aug-21 17:33N 46°48' W 071°13'0 0.0
2014-Aug-21 16:33N 46°48' W 071°13'0 0.0
2014-Aug-21 15:27N 46°48' W 071°13'0 0.0
2014-Aug-21 14:27N 46°48' W 071°13'0 0.0
2014-Aug-21 13:33N 46°48' W 071°13'0 0.0
2014-Aug-21 12:33N 46°48' W 071°13'0 0.0
2014-Aug-21 11:33N 46°48' W 071°13'0 0.0
2014-Aug-21 10:33N 46°48' W 071°13'0 0.0
2014-Aug-21 09:33N 46°48' W 071°13'0 0.0
2014-Aug-21 08:33N 46°48' W 071°13'0 0.0
2014-Aug-21 07:33N 46°48' W 071°13'0 0.0
2014-Aug-21 06:33N 46°48' W 071°13'0 0.0
2014-Aug-21 05:33N 46°48' W 071°13'0 0.0
2014-Aug-21 04:30N 46°48' W 071°13'0 0.0
2014-Aug-21 03:33N 46°48' W 071°13'0 0.0
2014-Aug-21 02:33N 46°48' W 071°13'0 0.0
2014-Aug-21 01:15N 46°48' W 071°13'0 0.0
2014-Aug-21 00:33N 46°48' W 071°13'0 0.0
2014-Aug-20 23:33N 46°48' W 071°13'0 0.0
2014-Aug-20 22:33N 46°48' W 071°13'0 0.0
2014-Aug-20 21:33N 46°48' W 071°13'0 0.0
2014-Aug-20 20:33N 46°48' W 071°13'0 0.0
2014-Aug-20 19:33N 46°48' W 071°13'0 0.0
2014-Aug-20 18:33N 46°48' W 071°13'0 0.0
2014-Aug-20 17:33N 46°48' W 071°13'0 0.0
2014-Aug-20 16:21N 46°48' W 071°13'0 0.0
2014-Aug-20 15:33N 46°48' W 071°13'0 0.0
2014-Aug-20 14:33N 46°48' W 071°13'0 0.0
2014-Aug-20 13:33N 46°48' W 071°13'0 0.0
2014-Aug-20 12:33N 46°48' W 071°13'0 0.0
2014-Aug-20 11:33N 46°48' W 071°13'0 0.0
2014-Aug-20 10:33N 46°48' W 071°13'0 0.0
2014-Aug-20 09:33N 46°48' W 071°13'0 0.0
2014-Aug-20 08:33N 46°48' W 071°13'0 0.0
2014-Aug-20 07:33N 46°48' W 071°13'1 1.3
2014-Aug-20 06:33N 46°49' W 071°12'1 1.0
2014-Aug-20 05:32N 46°50' W 071°12'0 0.0
2014-Aug-20 04:32N 46°50' W 071°12'0 0.0
2014-Aug-20 03:32N 46°50' W 071°12'0 0.0
2014-Aug-20 02:32N 46°50' W 071°12'0 0.0
2014-Aug-20 01:32N 46°50' W 071°12'0 0.0
2014-Aug-20 00:32N 46°50' W 071°12'0 0.0
2014-Aug-19 23:32N 46°50' W 071°12'0 0.0
2014-Aug-19 22:32N 46°50' W 071°12'0 0.0
2014-Aug-19 21:32N 46°50' W 071°12'0 0.0
2014-Aug-19 20:32N 46°50' W 071°12'0 0.0
2014-Aug-19 19:32N 46°50' W 071°12'0 0.0
2014-Aug-19 18:32N 46°50' W 071°12'0 0.0
2014-Aug-19 17:32N 46°50' W 071°12'0 0.0
2014-Aug-19 16:32N 46°50' W 071°12'0 0.0
2014-Aug-19 15:32N 46°50' W 071°12'0 0.0
2014-Aug-19 14:32N 46°50' W 071°12'0 0.0
2014-Aug-19 13:32N 46°50' W 071°12'0 0.0
2014-Aug-19 12:32N 46°50' W 071°12'0 0.0
2014-Aug-19 11:32N 46°50' W 071°12'0 0.0
2014-Aug-19 10:29N 46°50' W 071°12'0 0.0
2014-Aug-19 09:32N 46°50' W 071°12'0 0.0
2014-Aug-19 08:32N 46°50' W 071°12'0 0.0
2014-Aug-19 07:29N 46°50' W 071°12'0 0.0
2014-Aug-19 06:32N 46°50' W 071°12'0 0.0
2014-Aug-19 05:31N 46°50' W 071°12'0 0.0
2014-Aug-19 04:31N 46°50' W 071°12'0 0.0
2014-Aug-19 03:31N 46°50' W 071°12'0 0.0
2014-Aug-19 02:31N 46°50' W 071°12'0 0.0
2014-Aug-19 01:31N 46°50' W 071°12'0 0.0
2014-Aug-19 00:31N 46°50' W 071°12'0 0.0
2014-Aug-18 23:31N 46°50' W 071°12'0 0.0
2014-Aug-18 22:31N 46°50' W 071°12'0 0.0
2014-Aug-18 21:31N 46°50' W 071°12'0 0.0
2014-Aug-18 20:31N 46°50' W 071°12'0 0.0
2014-Aug-18 19:31N 46°50' W 071°12'0 0.0
2014-Aug-18 18:31N 46°50' W 071°12'0 0.0
2014-Aug-18 17:28N 46°50' W 071°12'0 0.0
2014-Aug-18 16:31N 46°50' W 071°12'0 0.0
2014-Aug-18 15:31N 46°50' W 071°12'0 0.0
2014-Aug-18 14:31N 46°50' W 071°12'0 0.0
2014-Aug-18 13:31N 46°50' W 071°12'0 0.0
2014-Aug-18 12:31N 46°50' W 071°12'0 0.0
2014-Aug-18 11:31N 46°50' W 071°12'0 0.0
2014-Aug-18 10:31N 46°50' W 071°12'0 0.0
2014-Aug-18 09:28N 46°50' W 071°12'0 0.0
2014-Aug-18 08:31N 46°50' W 071°12'0 0.0
2014-Aug-18 07:31N 46°50' W 071°12'0 0.0
2014-Aug-18 06:31N 46°50' W 071°12'0 0.0
2014-Aug-18 05:31N 46°50' W 071°12'0 0.0
2014-Aug-18 04:31N 46°50' W 071°12'0 0.0
2014-Aug-18 03:31N 46°50' W 071°12'0 0.0
2014-Aug-18 02:31N 46°50' W 071°12'0 0.0
2014-Aug-18 01:31N 46°50' W 071°12'0 0.0
2014-Aug-18 00:28N 46°50' W 071°12'0 0.0
2014-Aug-17 18:31N 46°50' W 071°12'0 0.0
2014-Aug-17 17:31N 46°50' W 071°12'0 0.0
2014-Aug-17 16:31N 46°50' W 071°12'0 0.0
2014-Aug-17 15:31N 46°50' W 071°12'0 0.0
2014-Aug-17 14:31N 46°50' W 071°12'0 0.0
2014-Aug-17 13:31N 46°50' W 071°12'0 0.0
2014-Aug-17 12:31N 46°50' W 071°12'0 0.0
2014-Aug-17 11:31N 46°50' W 071°12'0 0.0
2014-Aug-17 10:31N 46°50' W 071°12'0 0.0
2014-Aug-17 09:31N 46°50' W 071°12'0 0.0
2014-Aug-17 08:31N 46°50' W 071°12'0 0.0
2014-Aug-17 07:33N 46°50' W 071°12'0 0.0
2014-Aug-17 06:31N 46°50' W 071°12'0 0.0
2014-Aug-17 05:31N 46°50' W 071°12'0 0.0
2014-Aug-17 04:31N 46°50' W 071°12'0 0.0
2014-Aug-17 03:31N 46°50' W 071°12'1 0.7
2014-Aug-17 02:30N 46°50' W 071°11'1010.0
2014-Aug-17 01:32N 46°52' W 070°57'1313.6
2014-Aug-17 00:33N 47°03' W 070°45'1414.1
2014-Aug-16 23:33N 47°15' W 070°34'1413.8
2014-Aug-16 22:33N 47°26' W 070°23'  

Dump ship's entire track history